Station Historical Data
Daily Summary for February 12, 2012 Units:  Both    English   Metric
« Previous Day
Next Day »
Daily Weekly Monthly Yearly Custom
  High: Low: Average:
Temperature: 38.8 °F /  3.8 °C 15.9 °F /  -8.9 °C 26.4 °F /  -3.1 °C
Dew Point: 14.1 °F /  -9.9 °C 8.8 °F /  -12.9 °C 10.5 °F /  -11.9 °C
Humidity: 74% 32% 53%
Wind Speed: 11.0mph /  17.7km/h - 3.1mph /  5km/h
Wind Gust: 14.0mph /  22.5km/h - -
Wind- - NW
Pressure: 30.57 in /  1035.1 hPa 30.38 in /  1028.7 hPa -
Precipitation: 0.00 in /  0 mm    
Historical Graphs
 
 
Tabular Data for February 12, 2012
Time Temperature Dew Point Pressure Wind Wind Speed Wind Gust Humidity Rainfall Rate (Hourly) Conditions
00:00 20.7 °F /  -6.3 °C 9.0 °F /  -12.8 °C 30.50in /  1032.7hPa NW 4.0mph /  6.4km/h 5.0mph /  8km/h 60% 0.00in /  0mm
00:01 20.7 °F /  -6.3 °C 9.0 °F /  -12.8 °C 30.50in /  1032.7hPa NW 4.0mph /  6.4km/h 5.0mph /  8km/h 60% 0.00in /  0mm
00:06 20.6 °F /  -6.3 °C 9.7 °F /  -12.4 °C 30.51in /  1033.1hPa NW 4.0mph /  6.4km/h 5.0mph /  8km/h 62% 0.00in /  0mm
00:08 20.5 °F /  -6.4 °C 9.6 °F /  -12.4 °C 30.51in /  1033.1hPa NW 3.0mph /  4.8km/h 5.0mph /  8km/h 62% 0.00in /  0mm
00:13 20.5 °F /  -6.4 °C 9.6 °F /  -12.4 °C 30.51in /  1033.1hPa WNW 4.0mph /  6.4km/h 4.0mph /  6.4km/h 62% 0.00in /  0mm
00:18 20.5 °F /  -6.4 °C 9.2 °F /  -12.7 °C 30.51in /  1033.1hPa NW 3.0mph /  4.8km/h 4.0mph /  6.4km/h 61% 0.00in /  0mm
00:23 20.3 °F /  -6.5 °C 9.4 °F /  -12.6 °C 30.51in /  1033.1hPa NNW 3.0mph /  4.8km/h 4.0mph /  6.4km/h 62% 0.00in /  0mm
00:28 20.2 °F /  -6.6 °C 9.3 °F /  -12.6 °C 30.51in /  1033.1hPa NW 2.0mph /  3.2km/h 5.0mph /  8km/h 62% 0.00in /  0mm
00:33 20.2 °F /  -6.6 °C 9.6 °F /  -12.4 °C 30.51in /  1033.1hPa NW 2.0mph /  3.2km/h 6.0mph /  9.7km/h 63% 0.00in /  0mm
00:38 20.2 °F /  -6.6 °C 9.6 °F /  -12.4 °C 30.51in /  1033.1hPa NNW 2.0mph /  3.2km/h 4.0mph /  6.4km/h 63% 0.00in /  0mm
00:43 20.2 °F /  -6.6 °C 9.6 °F /  -12.4 °C 30.52in /  1033.4hPa NW 3.0mph /  4.8km/h 5.0mph /  8km/h 63% 0.00in /  0mm
00:48 20.0 °F /  -6.7 °C 9.4 °F /  -12.6 °C 30.52in /  1033.4hPa NNW 3.0mph /  4.8km/h 4.0mph /  6.4km/h 63% 0.00in /  0mm
00:53 20.0 °F /  -6.7 °C 9.8 °F /  -12.3 °C 30.52in /  1033.4hPa NNW 4.0mph /  6.4km/h 5.0mph /  8km/h 64% 0.00in /  0mm
00:58 20.0 °F /  -6.7 °C 9.4 °F /  -12.6 °C 30.52in /  1033.4hPa NNW 5.0mph /  8km/h 6.0mph /  9.7km/h 63% 0.00in /  0mm
01:03 20.0 °F /  -6.7 °C 9.4 °F /  -12.6 °C 30.52in /  1033.4hPa NW 5.0mph /  8km/h 5.0mph /  8km/h 63% 0.00in /  0mm
01:08 19.8 °F /  -6.8 °C 9.6 °F /  -12.4 °C 30.52in /  1033.4hPa NNW 4.0mph /  6.4km/h 5.0mph /  8km/h 64% 0.00in /  0mm
01:13 19.7 °F /  -6.8 °C 9.9 °F /  -12.3 °C 30.52in /  1033.4hPa NW 2.0mph /  3.2km/h 4.0mph /  6.4km/h 65% 0.00in /  0mm
01:18 19.6 °F /  -6.9 °C 9.8 °F /  -12.3 °C 30.52in /  1033.4hPa NW 3.0mph /  4.8km/h 4.0mph /  6.4km/h 65% 0.00in /  0mm
01:23 19.5 °F /  -6.9 °C 9.7 °F /  -12.4 °C 30.53in /  1033.7hPa WNW 2.0mph /  3.2km/h 3.0mph /  4.8km/h 65% 0.00in /  0mm
01:28 19.4 °F /  -7 °C 9.6 °F /  -12.4 °C 30.52in /  1033.4hPa NNW 3.0mph /  4.8km/h 4.0mph /  6.4km/h 65% 0.00in /  0mm
01:33 19.4 °F /  -7 °C 9.6 °F /  -12.4 °C 30.52in /  1033.4hPa WNW 2.0mph /  3.2km/h 3.0mph /  4.8km/h 65% 0.00in /  0mm
01:38 19.2 °F /  -7.1 °C 9.4 °F /  -12.6 °C 30.52in /  1033.4hPa WNW 1.0mph /  1.6km/h 2.0mph /  3.2km/h 65% 0.00in /  0mm
01:43 19.2 °F /  -7.1 °C 9.4 °F /  -12.6 °C 30.52in /  1033.4hPa WNW 1.0mph /  1.6km/h 3.0mph /  4.8km/h 65% 0.00in /  0mm
01:48 19.1 °F /  -7.2 °C 9.3 °F /  -12.6 °C 30.52in /  1033.4hPa NW 1.0mph /  1.6km/h 2.0mph /  3.2km/h 65% 0.00in /  0mm
01:53 18.9 °F /  -7.3 °C 9.4 °F /  -12.6 °C 30.52in /  1033.4hPa NW 1.0mph /  1.6km/h 2.0mph /  3.2km/h 66% 0.00in /  0mm
01:58 18.9 °F /  -7.3 °C 9.4 °F /  -12.6 °C 30.52in /  1033.4hPa NW 1.0mph /  1.6km/h 2.0mph /  3.2km/h 66% 0.00in /  0mm
02:03 18.8 °F /  -7.3 °C 9.3 °F /  -12.6 °C 30.52in /  1033.4hPa WNW 1.0mph /  1.6km/h 1.0mph /  1.6km/h 66% 0.00in /  0mm
02:08 18.7 °F /  -7.4 °C 9.2 °F /  -12.7 °C 30.52in /  1033.4hPa WNW 1.0mph /  1.6km/h 1.0mph /  1.6km/h 66% 0.00in /  0mm
02:13 18.6 °F /  -7.4 °C 9.5 °F /  -12.5 °C 30.52in /  1033.4hPa Calm   1.0mph /  1.6km/h 67% 0.00in /  0mm
02:18 18.4 °F /  -7.6 °C 9.3 °F /  -12.6 °C 30.52in /  1033.4hPa Calm   1.0mph /  1.6km/h 67% 0.00in /  0mm
02:23 18.3 °F /  -7.6 °C 9.2 °F /  -12.7 °C 30.52in /  1033.4hPa NW 1.0mph /  1.6km/h 2.0mph /  3.2km/h 67% 0.00in /  0mm
02:28 18.4 °F /  -7.6 °C 9.3 °F /  -12.6 °C 30.51in /  1033.1hPa NNW 2.0mph /  3.2km/h 2.0mph /  3.2km/h 67% 0.00in /  0mm
02:34 18.3 °F /  -7.6 °C 9.5 °F /  -12.5 °C 30.51in /  1033.1hPa NNW 3.0mph /  4.8km/h 3.0mph /  4.8km/h 68% 0.00in /  0mm
02:39 18.1 °F /  -7.7 °C 9.7 °F /  -12.4 °C 30.51in /  1033.1hPa NNW 3.0mph /  4.8km/h 4.0mph /  6.4km/h 69% 0.00in /  0mm
02:44 18.1 °F /  -7.7 °C 9.7 °F /  -12.4 °C 30.51in /  1033.1hPa NNW 2.0mph /  3.2km/h 4.0mph /  6.4km/h 69% 0.00in /  0mm
02:49 18.1 °F /  -7.7 °C 9.3 °F /  -12.6 °C 30.51in /  1033.1hPa NW 2.0mph /  3.2km/h 4.0mph /  6.4km/h 68% 0.00in /  0mm
02:54 18.1 °F /  -7.7 °C 9.7 °F /  -12.4 °C 30.51in /  1033.1hPa NW 1.0mph /  1.6km/h 3.0mph /  4.8km/h 69% 0.00in /  0mm
02:59 17.9 °F /  -7.8 °C 9.5 °F /  -12.5 °C 30.50in /  1032.7hPa NW 2.0mph /  3.2km/h 2.0mph /  3.2km/h 69% 0.00in /  0mm
03:04 17.9 °F /  -7.8 °C 9.5 °F /  -12.5 °C 30.50in /  1032.7hPa NW 2.0mph /  3.2km/h 2.0mph /  3.2km/h 69% 0.00in /  0mm
03:09 17.8 °F /  -7.9 °C 9.4 °F /  -12.6 °C 30.50in /  1032.7hPa NNW 2.0mph /  3.2km/h 2.0mph /  3.2km/h 69% 0.00in /  0mm
03:14 17.7 °F /  -7.9 °C 9.3 °F /  -12.6 °C 30.49in /  1032.4hPa NNW 2.0mph /  3.2km/h 4.0mph /  6.4km/h 69% 0.00in /  0mm
03:19 17.7 °F /  -7.9 °C 9.3 °F /  -12.6 °C 30.49in /  1032.4hPa NNW 2.0mph /  3.2km/h 4.0mph /  6.4km/h 69% 0.00in /  0mm
03:24 17.7 °F /  -7.9 °C 9.3 °F /  -12.6 °C 30.49in /  1032.4hPa NNW 1.0mph /  1.6km/h 3.0mph /  4.8km/h 69% 0.00in /  0mm
03:29 17.7 °F /  -7.9 °C 9.6 °F /  -12.4 °C 30.49in /  1032.4hPa NW 2.0mph /  3.2km/h 4.0mph /  6.4km/h 70% 0.00in /  0mm
03:34 17.7 °F /  -7.9 °C 9.3 °F /  -12.6 °C 30.49in /  1032.4hPa NW 2.0mph /  3.2km/h 3.0mph /  4.8km/h 69% 0.00in /  0mm
03:39 17.7 °F /  -7.9 °C 9.3 °F /  -12.6 °C 30.49in /  1032.4hPa NNW 3.0mph /  4.8km/h 4.0mph /  6.4km/h 69% 0.00in /  0mm
03:44 17.6 °F /  -8 °C 9.2 °F /  -12.7 °C 30.49in /  1032.4hPa NNW 1.0mph /  1.6km/h 3.0mph /  4.8km/h 69% 0.00in /  0mm
03:49 17.5 °F /  -8.1 °C 9.1 °F /  -12.7 °C 30.49in /  1032.4hPa Calm   2.0mph /  3.2km/h 69% 0.00in /  0mm
03:54 17.4 °F /  -8.1 °C 9.3 °F /  -12.6 °C 30.50in /  1032.7hPa West 2.0mph /  3.2km/h 2.0mph /  3.2km/h 70% 0.00in /  0mm
03:59 17.5 °F /  -8.1 °C 9.1 °F /  -12.7 °C 30.50in /  1032.7hPa Calm   1.0mph /  1.6km/h 69% 0.00in /  0mm
04:04 17.4 °F /  -8.1 °C 9.0 °F /  -12.8 °C 30.50in /  1032.7hPa WNW 2.0mph /  3.2km/h 3.0mph /  4.8km/h 69% 0.00in /  0mm
04:09 17.5 °F /  -8.1 °C 9.1 °F /  -12.7 °C 30.50in /  1032.7hPa West 1.0mph /  1.6km/h 3.0mph /  4.8km/h 69% 0.00in /  0mm
04:14 17.4 °F /  -8.1 °C 9.0 °F /  -12.8 °C 30.50in /  1032.7hPa West 1.0mph /  1.6km/h 1.0mph /  1.6km/h 69% 0.00in /  0mm
04:19 17.4 °F /  -8.1 °C 9.0 °F /  -12.8 °C 30.51in /  1033.1hPa West 1.0mph /  1.6km/h 2.0mph /  3.2km/h 69% 0.00in /  0mm
04:24 17.4 °F /  -8.1 °C 9.0 °F /  -12.8 °C 30.51in /  1033.1hPa West 1.0mph /  1.6km/h 3.0mph /  4.8km/h 69% 0.00in /  0mm
04:29 17.6 °F /  -8 °C 8.9 °F /  -12.8 °C 30.51in /  1033.1hPa West 1.0mph /  1.6km/h 3.0mph /  4.8km/h 68% 0.00in /  0mm
04:34 17.5 °F /  -8.1 °C 8.8 °F /  -12.9 °C 30.51in /  1033.1hPa WNW 3.0mph /  4.8km/h 4.0mph /  6.4km/h 68% 0.00in /  0mm
04:39 17.6 °F /  -8 °C 8.9 °F /  -12.8 °C 30.50in /  1032.7hPa NW 2.0mph /  3.2km/h 3.0mph /  4.8km/h 68% 0.00in /  0mm
04:44 17.5 °F /  -8.1 °C 8.8 °F /  -12.9 °C 30.50in /  1032.7hPa NNW 3.0mph /  4.8km/h 4.0mph /  6.4km/h 68% 0.00in /  0mm
04:49 17.5 °F /  -8.1 °C 8.8 °F /  -12.9 °C 30.50in /  1032.7hPa NW 3.0mph /  4.8km/h 3.0mph /  4.8km/h 68% 0.00in /  0mm
04:54 17.2 °F /  -8.2 °C 9.1 °F /  -12.7 °C 30.50in /  1032.7hPa NW 2.0mph /  3.2km/h 3.0mph /  4.8km/h 70% 0.00in /  0mm
04:59 17.1 °F /  -8.3 °C 9.0 °F /  -12.8 °C 30.50in /  1032.7hPa NW 2.0mph /  3.2km/h 2.0mph /  3.2km/h 70% 0.00in /  0mm
05:04 16.9 °F /  -8.4 °C 9.1 °F /  -12.7 °C 30.50in /  1032.7hPa NW 1.0mph /  1.6km/h 2.0mph /  3.2km/h 71% 0.00in /  0mm
05:10 16.7 °F /  -8.5 °C 8.9 °F /  -12.8 °C 30.50in /  1032.7hPa WNW 1.0mph /  1.6km/h 2.0mph /  3.2km/h 71% 0.00in /  0mm
05:15 16.5 °F /  -8.6 °C 9.1 °F /  -12.7 °C 30.50in /  1032.7hPa WNW 2.0mph /  3.2km/h 2.0mph /  3.2km/h 72% 0.00in /  0mm
05:20 16.3 °F /  -8.7 °C 9.2 °F /  -12.7 °C 30.50in /  1032.7hPa NW 1.0mph /  1.6km/h 2.0mph /  3.2km/h 73% 0.00in /  0mm
05:25 16.1 °F /  -8.8 °C 9.3 °F /  -12.6 °C 30.50in /  1032.7hPa Calm   1.0mph /  1.6km/h 74% 0.00in /  0mm
05:30 16.0 °F /  -8.9 °C 8.9 °F /  -12.8 °C 30.50in /  1032.7hPa WNW 1.0mph /  1.6km/h 2.0mph /  3.2km/h 73% 0.00in /  0mm
05:35 15.9 °F /  -8.9 °C 9.1 °F /  -12.7 °C 30.51in /  1033.1hPa NW 1.0mph /  1.6km/h 2.0mph /  3.2km/h 74% 0.00in /  0mm
05:40 16.0 °F /  -8.9 °C 9.2 °F /  -12.7 °C 30.51in /  1033.1hPa NW 1.0mph /  1.6km/h 3.0mph /  4.8km/h 74% 0.00in /  0mm
05:45 16.1 °F /  -8.8 °C 9.0 °F /  -12.8 °C 30.51in /  1033.1hPa NW 2.0mph /  3.2km/h 4.0mph /  6.4km/h 73% 0.00in /  0mm
05:50 16.3 °F /  -8.7 °C 9.2 °F /  -12.7 °C 30.51in /  1033.1hPa NW 2.0mph /  3.2km/h 3.0mph /  4.8km/h 73% 0.00in /  0mm
05:55 16.4 °F /  -8.7 °C 9.0 °F /  -12.8 °C 30.51in /  1033.1hPa NW 4.0mph /  6.4km/h 4.0mph /  6.4km/h 72% 0.00in /  0mm
06:00 16.4 °F /  -8.7 °C 9.3 °F /  -12.6 °C 30.52in /  1033.4hPa NW 2.0mph /  3.2km/h 3.0mph /  4.8km/h 73% 0.00in /  0mm
06:05 16.3 °F /  -8.7 °C 9.2 °F /  -12.7 °C 30.52in /  1033.4hPa NW 2.0mph /  3.2km/h 3.0mph /  4.8km/h 73% 0.00in /  0mm
06:10 16.3 °F /  -8.7 °C 9.2 °F /  -12.7 °C 30.52in /  1033.4hPa NW 2.0mph /  3.2km/h 4.0mph /  6.4km/h 73% 0.00in /  0mm
06:15 16.2 °F /  -8.8 °C 9.1 °F /  -12.7 °C 30.52in /  1033.4hPa NW 3.0mph /  4.8km/h 4.0mph /  6.4km/h 73% 0.00in /  0mm
06:20 16.2 °F /  -8.8 °C 9.4 °F /  -12.6 °C 30.53in /  1033.7hPa WNW 4.0mph /  6.4km/h 4.0mph /  6.4km/h 74% 0.00in /  0mm
06:25 16.1 °F /  -8.8 °C 9.3 °F /  -12.6 °C 30.53in /  1033.7hPa NW 4.0mph /  6.4km/h 4.0mph /  6.4km/h 74% 0.00in /  0mm
06:30 16.2 °F /  -8.8 °C 9.4 °F /  -12.6 °C 30.53in /  1033.7hPa NW 5.0mph /  8km/h 5.0mph /  8km/h 74% 0.00in /  0mm
06:35 16.4 °F /  -8.7 °C 9.3 °F /  -12.6 °C 30.53in /  1033.7hPa NNW 5.0mph /  8km/h 6.0mph /  9.7km/h 73% 0.00in /  0mm
06:36 16.4 °F /  -8.7 °C 9.3 °F /  -12.6 °C 30.53in /  1033.7hPa NW 4.0mph /  6.4km/h 6.0mph /  9.7km/h 73% 0.00in /  0mm
06:41 16.4 °F /  -8.7 °C 9.3 °F /  -12.6 °C 30.53in /  1033.7hPa NNW 4.0mph /  6.4km/h 5.0mph /  8km/h 73% 0.00in /  0mm
06:46 16.6 °F /  -8.6 °C 9.5 °F /  -12.5 °C 30.53in /  1033.7hPa NW 4.0mph /  6.4km/h 5.0mph /  8km/h 73% 0.00in /  0mm
06:51 16.6 °F /  -8.6 °C 9.8 °F /  -12.3 °C 30.53in /  1033.7hPa NNW 3.0mph /  4.8km/h 6.0mph /  9.7km/h 74% 0.00in /  0mm
06:56 16.6 °F /  -8.6 °C 9.5 °F /  -12.5 °C 30.53in /  1033.7hPa NW 3.0mph /  4.8km/h 7.0mph /  11.3km/h 73% 0.00in /  0mm
07:01 16.6 °F /  -8.6 °C 9.5 °F /  -12.5 °C 30.54in /  1034.1hPa NW 3.0mph /  4.8km/h 7.0mph /  11.3km/h 73% 0.00in /  0mm
07:06 16.6 °F /  -8.6 °C 9.5 °F /  -12.5 °C 30.54in /  1034.1hPa NW 3.0mph /  4.8km/h 5.0mph /  8km/h 73% 0.00in /  0mm
07:11 16.6 °F /  -8.6 °C 9.5 °F /  -12.5 °C 30.54in /  1034.1hPa WNW 4.0mph /  6.4km/h 6.0mph /  9.7km/h 73% 0.00in /  0mm
07:16 16.6 °F /  -8.6 °C 9.5 °F /  -12.5 °C 30.54in /  1034.1hPa NW 3.0mph /  4.8km/h 5.0mph /  8km/h 73% 0.00in /  0mm
07:21 16.5 °F /  -8.6 °C 9.4 °F /  -12.6 °C 30.54in /  1034.1hPa NW 3.0mph /  4.8km/h 5.0mph /  8km/h 73% 0.00in /  0mm
07:26 16.5 °F /  -8.6 °C 9.4 °F /  -12.6 °C 30.54in /  1034.1hPa NW 5.0mph /  8km/h 5.0mph /  8km/h 73% 0.00in /  0mm
07:31 16.4 °F /  -8.7 °C 9.6 °F /  -12.4 °C 30.54in /  1034.1hPa NW 3.0mph /  4.8km/h 5.0mph /  8km/h 74% 0.00in /  0mm
07:36 16.5 °F /  -8.6 °C 9.4 °F /  -12.6 °C 30.53in /  1033.7hPa NW 3.0mph /  4.8km/h 5.0mph /  8km/h 73% 0.00in /  0mm
07:41 16.6 °F /  -8.6 °C 9.5 °F /  -12.5 °C 30.54in /  1034.1hPa NW 3.0mph /  4.8km/h 7.0mph /  11.3km/h 73% 0.00in /  0mm
07:46 16.5 °F /  -8.6 °C 9.4 °F /  -12.6 °C 30.54in /  1034.1hPa NW 2.0mph /  3.2km/h 5.0mph /  8km/h 73% 0.00in /  0mm
07:51 16.6 °F /  -8.6 °C 9.5 °F /  -12.5 °C 30.54in /  1034.1hPa NW 5.0mph /  8km/h 7.0mph /  11.3km/h 73% 0.00in /  0mm
07:56 16.8 °F /  -8.4 °C 9.7 °F /  -12.4 °C 30.53in /  1033.7hPa NW 3.0mph /  4.8km/h 6.0mph /  9.7km/h 73% 0.00in /  0mm
08:01 16.9 °F /  -8.4 °C 9.4 °F /  -12.6 °C 30.53in /  1033.7hPa NW 3.0mph /  4.8km/h 5.0mph /  8km/h 72% 0.00in /  0mm
08:06 17.3 °F /  -8.2 °C 9.8 °F /  -12.3 °C 30.54in /  1034.1hPa NW 2.0mph /  3.2km/h 7.0mph /  11.3km/h 72% 0.00in /  0mm
08:11 17.6 °F /  -8 °C 9.8 °F /  -12.3 °C 30.54in /  1034.1hPa NW 3.0mph /  4.8km/h 6.0mph /  9.7km/h 71% 0.00in /  0mm
08:16 17.9 °F /  -7.8 °C 10.1 °F /  -12.2 °C 30.54in /  1034.1hPa NW 2.0mph /  3.2km/h 4.0mph /  6.4km/h 71% 0.00in /  0mm
08:21 18.1 °F /  -7.7 °C 10.0 °F /  -12.2 °C 30.55in /  1034.4hPa WNW 5.0mph /  8km/h 6.0mph /  9.7km/h 70% 0.00in /  0mm
08:26 18.5 °F /  -7.5 °C 10.4 °F /  -12 °C 30.55in /  1034.4hPa NW 3.0mph /  4.8km/h 4.0mph /  6.4km/h 70% 0.00in /  0mm
08:31 18.8 °F /  -7.3 °C 11.0 °F /  -11.7 °C 30.55in /  1034.4hPa WNW 3.0mph /  4.8km/h 5.0mph /  8km/h 71% 0.00in /  0mm
08:36 19.1 °F /  -7.2 °C 10.6 °F /  -11.9 °C 30.55in /  1034.4hPa NW 3.0mph /  4.8km/h 8.0mph /  12.9km/h 69% 0.00in /  0mm
08:41 19.4 °F /  -7 °C 10.6 °F /  -11.9 °C 30.55in /  1034.4hPa NNW 3.0mph /  4.8km/h 8.0mph /  12.9km/h 68% 0.00in /  0mm
08:46 19.8 °F /  -6.8 °C 11.0 °F /  -11.7 °C 30.55in /  1034.4hPa NW 4.0mph /  6.4km/h 7.0mph /  11.3km/h 68% 0.00in /  0mm
08:51 20.2 °F /  -6.6 °C 11.0 °F /  -11.7 °C 30.56in /  1034.8hPa NNW 3.0mph /  4.8km/h 6.0mph /  9.7km/h 67% 0.00in /  0mm
08:56 20.3 °F /  -6.5 °C 10.4 °F /  -12 °C 30.55in /  1034.4hPa North 9.0mph /  14.5km/h 10.0mph /  16.1km/h 65% 0.00in /  0mm
09:01 20.7 °F /  -6.3 °C 10.8 °F /  -11.8 °C 30.55in /  1034.4hPa NW 5.0mph /  8km/h 6.0mph /  9.7km/h 65% 0.00in /  0mm
09:06 21.1 °F /  -6.1 °C 11.2 °F /  -11.6 °C 30.56in /  1034.8hPa NW 6.0mph /  9.7km/h 8.0mph /  12.9km/h 65% 0.00in /  0mm
09:12 21.3 °F /  -5.9 °C 11.0 °F /  -11.7 °C 30.56in /  1034.8hPa NW 9.0mph /  14.5km/h 10.0mph /  16.1km/h 64% 0.00in /  0mm
09:16 21.5 °F /  -5.8 °C 10.5 °F /  -11.9 °C 30.56in /  1034.8hPa NNW 8.0mph /  12.9km/h 10.0mph /  16.1km/h 62% 0.00in /  0mm
09:22 21.8 °F /  -5.7 °C 10.4 °F /  -12 °C 30.56in /  1034.8hPa WNW 9.0mph /  14.5km/h 12.0mph /  19.3km/h 61% 0.00in /  0mm
09:27 22.0 °F /  -5.6 °C 9.9 °F /  -12.3 °C 30.56in /  1034.8hPa NNW 7.0mph /  11.3km/h 11.0mph /  17.7km/h 59% 0.00in /  0mm
09:32 22.3 °F /  -5.4 °C 10.2 °F /  -12.1 °C 30.56in /  1034.8hPa NNW 8.0mph /  12.9km/h 13.0mph /  20.9km/h 59% 0.00in /  0mm
09:37 22.5 °F /  -5.3 °C 9.2 °F /  -12.7 °C 30.56in /  1034.8hPa NNW 11.0mph /  17.7km/h 12.0mph /  19.3km/h 56% 0.00in /  0mm
09:42 22.9 °F /  -5.1 °C 10.0 °F /  -12.2 °C 30.56in /  1034.8hPa NW 10.0mph /  16.1km/h 14.0mph /  22.5km/h 57% 0.00in /  0mm
09:47 23.2 °F /  -4.9 °C 10.6 °F /  -11.9 °C 30.56in /  1034.8hPa NW 7.0mph /  11.3km/h 11.0mph /  17.7km/h 58% 0.00in /  0mm
09:52 23.6 °F /  -4.7 °C 10.2 °F /  -12.1 °C 30.56in /  1034.8hPa NNW 8.0mph /  12.9km/h 12.0mph /  19.3km/h 56% 0.00in /  0mm
09:57 23.8 °F /  -4.6 °C 10.0 °F /  -12.2 °C 30.56in /  1034.8hPa WNW 10.0mph /  16.1km/h 11.0mph /  17.7km/h 55% 0.00in /  0mm
10:02 23.9 °F /  -4.5 °C 9.7 °F /  -12.4 °C 30.56in /  1034.8hPa NNW 7.0mph /  11.3km/h 12.0mph /  19.3km/h 54% 0.00in /  0mm
10:07 24.0 °F /  -4.4 °C 9.4 °F /  -12.6 °C 30.56in /  1034.8hPa North 7.0mph /  11.3km/h 12.0mph /  19.3km/h 53% 0.00in /  0mm
10:12 24.2 °F /  -4.3 °C 10.0 °F /  -12.2 °C 30.56in /  1034.8hPa NNW 5.0mph /  8km/h 11.0mph /  17.7km/h 54% 0.00in /  0mm
10:17 24.5 °F /  -4.2 °C 9.8 °F /  -12.3 °C 30.56in /  1034.8hPa NNW 3.0mph /  4.8km/h 11.0mph /  17.7km/h 53% 0.00in /  0mm
10:22 24.8 °F /  -4 °C 10.5 °F /  -11.9 °C 30.56in /  1034.8hPa NW 5.0mph /  8km/h 10.0mph /  16.1km/h 54% 0.00in /  0mm
10:27 25.1 °F /  -3.8 °C 11.2 °F /  -11.6 °C 30.56in /  1034.8hPa NNW 8.0mph /  12.9km/h 8.0mph /  12.9km/h 55% 0.00in /  0mm
10:32 25.3 °F /  -3.7 °C 10.6 °F /  -11.9 °C 30.56in /  1034.8hPa West 5.0mph /  8km/h 7.0mph /  11.3km/h 53% 0.00in /  0mm
10:37 25.5 °F /  -3.6 °C 10.3 °F /  -12.1 °C 30.56in /  1034.8hPa NW 6.0mph /  9.7km/h 8.0mph /  12.9km/h 52% 0.00in /  0mm
10:42 25.9 °F /  -3.4 °C 10.3 °F /  -12.1 °C 30.57in /  1035.1hPa WNW 3.0mph /  4.8km/h 7.0mph /  11.3km/h 51% 0.00in /  0mm
10:47 26.2 °F /  -3.2 °C 10.1 °F /  -12.2 °C 30.57in /  1035.1hPa West 6.0mph /  9.7km/h 10.0mph /  16.1km/h 50% 0.00in /  0mm
10:52 26.1 °F /  -3.3 °C 9.1 °F /  -12.7 °C 30.57in /  1035.1hPa NNW 3.0mph /  4.8km/h 9.0mph /  14.5km/h 48% 0.00in /  0mm
10:57 26.1 °F /  -3.3 °C 9.1 °F /  -12.7 °C 30.57in /  1035.1hPa WNW 7.0mph /  11.3km/h 12.0mph /  19.3km/h 48% 0.00in /  0mm
11:02 26.3 °F /  -3.2 °C 9.3 °F /  -12.6 °C 30.57in /  1035.1hPa NNW 7.0mph /  11.3km/h 10.0mph /  16.1km/h 48% 0.00in /  0mm
11:07 26.6 °F /  -3 °C 10.5 °F /  -11.9 °C 30.57in /  1035.1hPa NW 6.0mph /  9.7km/h 10.0mph /  16.1km/h 50% 0.00in /  0mm
11:12 27.3 °F /  -2.6 °C 11.1 °F /  -11.6 °C 30.56in /  1034.8hPa NW 7.0mph /  11.3km/h 8.0mph /  12.9km/h 50% 0.00in /  0mm
11:17 27.2 °F /  -2.7 °C 10.6 °F /  -11.9 °C 30.57in /  1035.1hPa NNW 6.0mph /  9.7km/h 6.0mph /  9.7km/h 49% 0.00in /  0mm
11:22 27.6 °F /  -2.4 °C 10.9 °F /  -11.7 °C 30.56in /  1034.8hPa NNE 6.0mph /  9.7km/h 9.0mph /  14.5km/h 49% 0.00in /  0mm
11:27 27.9 °F /  -2.3 °C 9.8 °F /  -12.3 °C 30.56in /  1034.8hPa WNW 3.0mph /  4.8km/h 7.0mph /  11.3km/h 46% 0.00in /  0mm
11:32 28.1 °F /  -2.2 °C 10.9 °F /  -11.7 °C 30.56in /  1034.8hPa NW 3.0mph /  4.8km/h 7.0mph /  11.3km/h 48% 0.00in /  0mm
11:37 28.2 °F /  -2.1 °C 9.1 °F /  -12.7 °C 30.56in /  1034.8hPa WNW 3.0mph /  4.8km/h 9.0mph /  14.5km/h 44% 0.00in /  0mm
11:42 28.4 °F /  -2 °C 10.8 °F /  -11.8 °C 30.56in /  1034.8hPa WSW 4.0mph /  6.4km/h 8.0mph /  12.9km/h 47% 0.00in /  0mm
11:47 28.5 °F /  -1.9 °C 10.4 °F /  -12 °C 30.56in /  1034.8hPa WNW 5.0mph /  8km/h 7.0mph /  11.3km/h 46% 0.00in /  0mm
11:52 28.9 °F /  -1.7 °C 10.2 °F /  -12.1 °C 30.55in /  1034.4hPa West 6.0mph /  9.7km/h 6.0mph /  9.7km/h 45% 0.00in /  0mm
11:57 29.0 °F /  -1.7 °C 11.3 °F /  -11.5 °C 30.55in /  1034.4hPa NNW 3.0mph /  4.8km/h 6.0mph /  9.7km/h 47% 0.00in /  0mm
12:02 29.3 °F /  -1.5 °C 10.1 °F /  -12.2 °C 30.55in /  1034.4hPa NNW 6.0mph /  9.7km/h 8.0mph /  12.9km/h 44% 0.00in /  0mm
12:07 29.3 °F /  -1.5 °C 10.6 °F /  -11.9 °C 30.55in /  1034.4hPa WNW 5.0mph /  8km/h 7.0mph /  11.3km/h 45% 0.00in /  0mm
12:12 29.4 °F /  -1.4 °C 10.7 °F /  -11.8 °C 30.55in /  1034.4hPa North 5.0mph /  8km/h 9.0mph /  14.5km/h 45% 0.00in /  0mm
12:17 30.0 °F /  -1.1 °C 11.2 °F /  -11.6 °C 30.55in /  1034.4hPa WNW 4.0mph /  6.4km/h 6.0mph /  9.7km/h 45% 0.00in /  0mm
12:22 30.8 °F /  -0.7 °C 12.0 °F /  -11.1 °C 30.55in /  1034.4hPa NW 6.0mph /  9.7km/h 10.0mph /  16.1km/h 45% 0.00in /  0mm
12:27 30.7 °F /  -0.7 °C 11.4 °F /  -11.4 °C 30.55in /  1034.4hPa NW 4.0mph /  6.4km/h 7.0mph /  11.3km/h 44% 0.00in /  0mm
12:32 31.1 °F /  -0.5 °C 12.2 °F /  -11 °C 30.54in /  1034.1hPa NNE 5.0mph /  8km/h 10.0mph /  16.1km/h 45% 0.00in /  0mm
12:38 31.4 °F /  -0.3 °C 12.0 °F /  -11.1 °C 30.54in /  1034.1hPa NNW 6.0mph /  9.7km/h 8.0mph /  12.9km/h 44% 0.00in /  0mm
12:43 31.6 °F /  -0.2 °C 10.6 °F /  -11.9 °C 30.54in /  1034.1hPa NW 4.0mph /  6.4km/h 6.0mph /  9.7km/h 41% 0.00in /  0mm
12:48 31.8 °F /  -0.1 °C 11.3 °F /  -11.5 °C 30.54in /  1034.1hPa NW 4.0mph /  6.4km/h 9.0mph /  14.5km/h 42% 0.00in /  0mm
12:53 31.8 °F /  -0.1 °C 10.8 °F /  -11.8 °C 30.53in /  1033.7hPa East 2.0mph /  3.2km/h 9.0mph /  14.5km/h 41% 0.00in /  0mm
12:58 31.8 °F /  -0.1 °C 10.8 °F /  -11.8 °C 30.53in /  1033.7hPa NW 7.0mph /  11.3km/h 10.0mph /  16.1km/h 41% 0.00in /  0mm
13:03 31.8 °F /  -0.1 °C 9.7 °F /  -12.4 °C 30.53in /  1033.7hPa West 3.0mph /  4.8km/h 9.0mph /  14.5km/h 39% 0.00in /  0mm
13:08 32.3 °F /  0.2 °C 11.8 °F /  -11.2 °C 30.53in /  1033.7hPa NNE 7.0mph /  11.3km/h 9.0mph /  14.5km/h 42% 0.00in /  0mm
13:13 32.7 °F /  0.4 °C 11.6 °F /  -11.3 °C 30.52in /  1033.4hPa NW 3.0mph /  4.8km/h 8.0mph /  12.9km/h 41% 0.00in /  0mm
13:18 32.6 °F /  0.3 °C 11.5 °F /  -11.4 °C 30.53in /  1033.7hPa NW 2.0mph /  3.2km/h 9.0mph /  14.5km/h 41% 0.00in /  0mm
13:23 32.9 °F /  0.5 °C 10.7 °F /  -11.8 °C 30.52in /  1033.4hPa West 5.0mph /  8km/h 10.0mph /  16.1km/h 39% 0.00in /  0mm
13:29 32.9 °F /  0.5 °C 10.7 °F /  -11.8 °C 30.52in /  1033.4hPa NW 7.0mph /  11.3km/h 12.0mph /  19.3km/h 39% 0.00in /  0mm
13:34 33.9 °F /  1.1 °C 12.7 °F /  -10.7 °C 30.51in /  1033.1hPa NW 7.0mph /  11.3km/h 7.0mph /  11.3km/h 41% 0.00in /  0mm
13:39 34.7 °F /  1.5 °C 12.3 °F /  -10.9 °C 30.51in /  1033.1hPa WNW 5.0mph /  8km/h 6.0mph /  9.7km/h 39% 0.00in /  0mm
13:44 34.8 °F /  1.6 °C 12.9 °F /  -10.6 °C 30.51in /  1033.1hPa NW 3.0mph /  4.8km/h 9.0mph /  14.5km/h 40% 0.00in /  0mm
13:49 34.7 °F /  1.5 °C 11.7 °F /  -11.3 °C 30.51in /  1033.1hPa NW 4.0mph /  6.4km/h 7.0mph /  11.3km/h 38% 0.00in /  0mm
13:54 34.5 °F /  1.4 °C 10.9 °F /  -11.7 °C 30.51in /  1033.1hPa WNW 6.0mph /  9.7km/h 11.0mph /  17.7km/h 37% 0.00in /  0mm
13:59 34.3 °F /  1.3 °C 11.4 °F /  -11.4 °C 30.50in /  1032.7hPa Calm   8.0mph /  12.9km/h 38% 0.00in /  0mm
14:04 34.9 °F /  1.6 °C 11.9 °F /  -11.2 °C 30.50in /  1032.7hPa NE 3.0mph /  4.8km/h 5.0mph /  8km/h 38% 0.00in /  0mm
14:09 35.1 °F /  1.7 °C 10.9 °F /  -11.7 °C 30.50in /  1032.7hPa WNW 6.0mph /  9.7km/h 10.0mph /  16.1km/h 36% 0.00in /  0mm
14:14 35.1 °F /  1.7 °C 10.9 °F /  -11.7 °C 30.50in /  1032.7hPa NW 6.0mph /  9.7km/h 9.0mph /  14.5km/h 36% 0.00in /  0mm
14:19 35.4 °F /  1.9 °C 12.9 °F /  -10.6 °C 30.49in /  1032.4hPa West 1.0mph /  1.6km/h 4.0mph /  6.4km/h 39% 0.00in /  0mm
14:24 35.7 °F /  2.1 °C 12.0 °F /  -11.1 °C 30.49in /  1032.4hPa NW 7.0mph /  11.3km/h 7.0mph /  11.3km/h 37% 0.00in /  0mm
14:29 35.8 °F /  2.1 °C 13.3 °F /  -10.4 °C 30.49in /  1032.4hPa NNW 5.0mph /  8km/h 7.0mph /  11.3km/h 39% 0.00in /  0mm
14:34 36.2 °F /  2.3 °C 11.8 °F /  -11.2 °C 30.49in /  1032.4hPa NW 6.0mph /  9.7km/h 10.0mph /  16.1km/h 36% 0.00in /  0mm
14:40 36.2 °F /  2.3 °C 12.4 °F /  -10.9 °C 30.48in /  1032.1hPa NW 6.0mph /  9.7km/h 8.0mph /  12.9km/h 37% 0.00in /  0mm
14:45 36.5 °F /  2.5 °C 11.5 °F /  -11.4 °C 30.48in /  1032.1hPa NW 4.0mph /  6.4km/h 6.0mph /  9.7km/h 35% 0.00in /  0mm
14:46 36.7 °F /  2.6 °C 12.9 °F /  -10.6 °C 30.48in /  1032.1hPa NNW 3.0mph /  4.8km/h 4.0mph /  6.4km/h 37% 0.00in /  0mm
14:51 37.3 °F /  2.9 °C 13.4 °F /  -10.3 °C 30.48in /  1032.1hPa NW 8.0mph /  12.9km/h 12.0mph /  19.3km/h 37% 0.00in /  0mm
14:56 37.4 °F /  3 °C 12.9 °F /  -10.6 °C 30.48in /  1032.1hPa WNW 6.0mph /  9.7km/h 9.0mph /  14.5km/h 36% 0.00in /  0mm
15:01 37.3 °F /  2.9 °C 11.5 °F /  -11.4 °C 30.48in /  1032.1hPa WNW 8.0mph /  12.9km/h 11.0mph /  17.7km/h 34% 0.00in /  0mm
15:06 37.4 °F /  3 °C 12.3 °F /  -10.9 °C 30.48in /  1032.1hPa NW 6.0mph /  9.7km/h 10.0mph /  16.1km/h 35% 0.00in /  0mm
15:11 37.7 °F /  3.2 °C 13.2 °F /  -10.4 °C 30.48in /  1032.1hPa West 6.0mph /  9.7km/h 8.0mph /  12.9km/h 36% 0.00in /  0mm
15:16 37.7 °F /  3.2 °C 11.9 °F /  -11.2 °C 30.47in /  1031.7hPa West 3.0mph /  4.8km/h 6.0mph /  9.7km/h 34% 0.00in /  0mm
15:21 38.1 °F /  3.4 °C 14.1 °F /  -9.9 °C 30.47in /  1031.7hPa NW 5.0mph /  8km/h 10.0mph /  16.1km/h 37% 0.00in /  0mm
15:26 37.8 °F /  3.2 °C 11.3 °F /  -11.5 °C 30.47in /  1031.7hPa WNW 7.0mph /  11.3km/h 9.0mph /  14.5km/h 33% 0.00in /  0mm
15:31 37.7 °F /  3.2 °C 11.2 °F /  -11.6 °C 30.47in /  1031.7hPa West 6.0mph /  9.7km/h 7.0mph /  11.3km/h 33% 0.00in /  0mm
15:36 37.9 °F /  3.3 °C 12.1 °F /  -11.1 °C 30.46in /  1031.4hPa NW 6.0mph /  9.7km/h 7.0mph /  11.3km/h 34% 0.00in /  0mm
15:42 38.2 °F /  3.4 °C 12.3 °F /  -10.9 °C 30.46in /  1031.4hPa NNW 4.0mph /  6.4km/h 9.0mph /  14.5km/h 34% 0.00in /  0mm
15:47 38.1 °F /  3.4 °C 10.9 °F /  -11.7 °C 30.46in /  1031.4hPa WSW 2.0mph /  3.2km/h 5.0mph /  8km/h 32% 0.00in /  0mm
15:52 38.3 °F /  3.5 °C 12.4 °F /  -10.9 °C 30.46in /  1031.4hPa NW 3.0mph /  4.8km/h 4.0mph /  6.4km/h 34% 0.00in /  0mm
15:57 38.7 °F /  3.7 °C 12.1 °F /  -11.1 °C 30.45in /  1031hPa NW 6.0mph /  9.7km/h 9.0mph /  14.5km/h 33% 0.00in /  0mm
16:02 38.3 °F /  3.5 °C 11.7 °F /  -11.3 °C 30.45in /  1031hPa WNW 5.0mph /  8km/h 9.0mph /  14.5km/h 33% 0.00in /  0mm
16:07 38.3 °F /  3.5 °C 12.4 °F /  -10.9 °C 30.45in /  1031hPa WNW 9.0mph /  14.5km/h 9.0mph /  14.5km/h 34% 0.00in /  0mm
16:12 38.3 °F /  3.5 °C 11.7 °F /  -11.3 °C 30.45in /  1031hPa NW 6.0mph /  9.7km/h 10.0mph /  16.1km/h 33% 0.00in /  0mm
16:17 38.3 °F /  3.5 °C 11.7 °F /  -11.3 °C 30.45in /  1031hPa NW 5.0mph /  8km/h 9.0mph /  14.5km/h 33% 0.00in /  0mm
16:22 38.5 °F /  3.6 °C 11.9 °F /  -11.2 °C 30.45in /  1031hPa NW 6.0mph /  9.7km/h 6.0mph /  9.7km/h 33% 0.00in /  0mm
16:27 38.5 °F /  3.6 °C 12.6 °F /  -10.8 °C 30.45in /  1031hPa NNW 2.0mph /  3.2km/h 6.0mph /  9.7km/h 34% 0.00in /  0mm
16:32 38.6 °F /  3.7 °C 12.0 °F /  -11.1 °C 30.45in /  1031hPa West 8.0mph /  12.9km/h 8.0mph /  12.9km/h 33% 0.00in /  0mm
16:37 38.5 °F /  3.6 °C 11.2 °F /  -11.6 °C 30.45in /  1031hPa WSW 3.0mph /  4.8km/h 6.0mph /  9.7km/h 32% 0.00in /  0mm
16:42 38.7 °F /  3.7 °C 11.4 °F /  -11.4 °C 30.45in /  1031hPa WNW 5.0mph /  8km/h 9.0mph /  14.5km/h 32% 0.00in /  0mm
16:47 38.7 °F /  3.7 °C 11.4 °F /  -11.4 °C 30.44in /  1030.7hPa West 5.0mph /  8km/h 7.0mph /  11.3km/h 32% 0.00in /  0mm
16:52 38.8 °F /  3.8 °C 11.5 °F /  -11.4 °C 30.44in /  1030.7hPa West 4.0mph /  6.4km/h 7.0mph /  11.3km/h 32% 0.00in /  0mm
16:57 38.8 °F /  3.8 °C 12.9 °F /  -10.6 °C 30.44in /  1030.7hPa NW 4.0mph /  6.4km/h 7.0mph /  11.3km/h 34% 0.00in /  0mm
17:02 38.8 °F /  3.8 °C 12.2 °F /  -11 °C 30.44in /  1030.7hPa NW 2.0mph /  3.2km/h 5.0mph /  8km/h 33% 0.00in /  0mm
17:07 38.8 °F /  3.8 °C 12.2 °F /  -11 °C 30.44in /  1030.7hPa WNW 4.0mph /  6.4km/h 8.0mph /  12.9km/h 33% 0.00in /  0mm
17:12 38.8 °F /  3.8 °C 11.5 °F /  -11.4 °C 30.44in /  1030.7hPa NW 3.0mph /  4.8km/h 6.0mph /  9.7km/h 32% 0.00in /  0mm
17:17 38.7 °F /  3.7 °C 11.4 °F /  -11.4 °C 30.44in /  1030.7hPa NNW 1.0mph /  1.6km/h 4.0mph /  6.4km/h 32% 0.00in /  0mm
17:22 38.8 °F /  3.8 °C 11.5 °F /  -11.4 °C 30.44in /  1030.7hPa WNW 3.0mph /  4.8km/h 4.0mph /  6.4km/h 32% 0.00in /  0mm
17:27 38.7 °F /  3.7 °C 11.4 °F /  -11.4 °C 30.44in /  1030.7hPa WNW 4.0mph /  6.4km/h 5.0mph /  8km/h 32% 0.00in /  0mm
17:32 38.4 °F /  3.6 °C 11.1 °F /  -11.6 °C 30.44in /  1030.7hPa West 2.0mph /  3.2km/h 6.0mph /  9.7km/h 32% 0.00in /  0mm
17:37 38.4 °F /  3.6 °C 11.1 °F /  -11.6 °C 30.44in /  1030.7hPa West 1.0mph /  1.6km/h 3.0mph /  4.8km/h 32% 0.00in /  0mm
17:42 38.6 °F /  3.7 °C 12.0 °F /  -11.1 °C 30.44in /  1030.7hPa WNW 4.0mph /  6.4km/h 4.0mph /  6.4km/h 33% 0.00in /  0mm
17:47 38.2 °F /  3.4 °C 10.9 °F /  -11.7 °C 30.43in /  1030.4hPa NW 2.0mph /  3.2km/h 4.0mph /  6.4km/h 32% 0.00in /  0mm
17:53 38.1 °F /  3.4 °C 12.2 °F /  -11 °C 30.43in /  1030.4hPa NW 5.0mph /  8km/h 6.0mph /  9.7km/h 34% 0.00in /  0mm
17:58 37.7 °F /  3.2 °C 11.2 °F /  -11.6 °C 30.43in /  1030.4hPa NW 3.0mph /  4.8km/h 5.0mph /  8km/h 33% 0.00in /  0mm
18:03 37.5 °F /  3.1 °C 12.4 °F /  -10.9 °C 30.43in /  1030.4hPa NW 3.0mph /  4.8km/h 4.0mph /  6.4km/h 35% 0.00in /  0mm
18:08 37.1 °F /  2.8 °C 12.0 °F /  -11.1 °C 30.43in /  1030.4hPa NW 2.0mph /  3.2km/h 4.0mph /  6.4km/h 35% 0.00in /  0mm
18:13 36.8 °F /  2.7 °C 11.7 °F /  -11.3 °C 30.43in /  1030.4hPa WNW 1.0mph /  1.6km/h 3.0mph /  4.8km/h 35% 0.00in /  0mm
18:18 36.7 °F /  2.6 °C 11.6 °F /  -11.3 °C 30.43in /  1030.4hPa NW 2.0mph /  3.2km/h 2.0mph /  3.2km/h 35% 0.00in /  0mm
18:23 36.2 °F /  2.3 °C 11.8 °F /  -11.2 °C 30.43in /  1030.4hPa NW 1.0mph /  1.6km/h 2.0mph /  3.2km/h 36% 0.00in /  0mm
18:28 35.5 °F /  1.9 °C 11.8 °F /  -11.2 °C 30.43in /  1030.4hPa NNW 1.0mph /  1.6km/h 2.0mph /  3.2km/h 37% 0.00in /  0mm
18:33 35.1 °F /  1.7 °C 12.1 °F /  -11.1 °C 30.43in /  1030.4hPa North 1.0mph /  1.6km/h 2.0mph /  3.2km/h 38% 0.00in /  0mm
18:38 34.8 °F /  1.6 °C 11.8 °F /  -11.2 °C 30.43in /  1030.4hPa NNW 2.0mph /  3.2km/h 3.0mph /  4.8km/h 38% 0.00in /  0mm
18:43 34.4 °F /  1.3 °C 12.0 °F /  -11.1 °C 30.43in /  1030.4hPa NNW 2.0mph /  3.2km/h 2.0mph /  3.2km/h 39% 0.00in /  0mm
18:48 34.0 °F /  1.1 °C 12.2 °F /  -11 °C 30.43in /  1030.4hPa NNW 1.0mph /  1.6km/h 2.0mph /  3.2km/h 40% 0.00in /  0mm
18:53 33.7 °F /  0.9 °C 11.4 °F /  -11.4 °C 30.43in /  1030.4hPa NNW 1.0mph /  1.6km/h 2.0mph /  3.2km/h 39% 0.00in /  0mm
18:58 33.5 °F /  0.8 °C 11.2 °F /  -11.6 °C 30.43in /  1030.4hPa NNW 1.0mph /  1.6km/h 1.0mph /  1.6km/h 39% 0.00in /  0mm
19:03 33.5 °F /  0.8 °C 11.2 °F /  -11.6 °C 30.43in /  1030.4hPa NNW 1.0mph /  1.6km/h 1.0mph /  1.6km/h 39% 0.00in /  0mm
19:08 33.5 °F /  0.8 °C 11.2 °F /  -11.6 °C 30.43in /  1030.4hPa NW 1.0mph /  1.6km/h 2.0mph /  3.2km/h 39% 0.00in /  0mm
19:13 33.3 °F /  0.7 °C 11.0 °F /  -11.7 °C 30.43in /  1030.4hPa NW 1.0mph /  1.6km/h 1.0mph /  1.6km/h 39% 0.00in /  0mm
19:18 33.2 °F /  0.7 °C 10.9 °F /  -11.7 °C 30.43in /  1030.4hPa NW 1.0mph /  1.6km/h 1.0mph /  1.6km/h 39% 0.00in /  0mm
19:23 33.1 °F /  0.6 °C 10.9 °F /  -11.7 °C 30.43in /  1030.4hPa Calm   1.0mph /  1.6km/h 39% 0.00in /  0mm
19:28 32.5 °F /  0.3 °C 10.3 °F /  -12.1 °C 30.43in /  1030.4hPa Calm     39% 0.00in /  0mm
19:33 32.3 °F /  0.2 °C 10.7 °F /  -11.8 °C 30.42in /  1030hPa NW 1.0mph /  1.6km/h 1.0mph /  1.6km/h 40% 0.00in /  0mm
19:38 32.1 °F /  0.1 °C 10.5 °F /  -11.9 °C 30.42in /  1030hPa Calm   1.0mph /  1.6km/h 40% 0.00in /  0mm
19:43 31.8 °F /  -0.1 °C 10.8 °F /  -11.8 °C 30.42in /  1030hPa NW 1.0mph /  1.6km/h 1.0mph /  1.6km/h 41% 0.00in /  0mm
19:48 31.6 °F /  -0.2 °C 10.6 °F /  -11.9 °C 30.42in /  1030hPa NW 1.0mph /  1.6km/h 1.0mph /  1.6km/h 41% 0.00in /  0mm
19:53 31.5 °F /  -0.3 °C 11.1 °F /  -11.6 °C 30.42in /  1030hPa Calm     42% 0.00in /  0mm
19:58 31.1 °F /  -0.5 °C 10.7 °F /  -11.8 °C 30.42in /  1030hPa Calm     42% 0.00in /  0mm
20:03 31.1 °F /  -0.5 °C 10.7 °F /  -11.8 °C 30.42in /  1030hPa Calm     42% 0.00in /  0mm
20:08 31.2 °F /  -0.4 °C 10.8 °F /  -11.8 °C 30.42in /  1030hPa Calm   1.0mph /  1.6km/h 42% 0.00in /  0mm
20:13 31.4 °F /  -0.3 °C 10.4 °F /  -12 °C 30.42in /  1030hPa NW 1.0mph /  1.6km/h 2.0mph /  3.2km/h 41% 0.00in /  0mm
20:18 31.6 °F /  -0.2 °C 10.6 °F /  -11.9 °C 30.42in /  1030hPa NW 1.0mph /  1.6km/h 1.0mph /  1.6km/h 41% 0.00in /  0mm
20:24 31.2 °F /  -0.4 °C 10.2 °F /  -12.1 °C 30.42in /  1030hPa Calm   1.0mph /  1.6km/h 41% 0.00in /  0mm
20:29 31.0 °F /  -0.6 °C 10.6 °F /  -11.9 °C 30.42in /  1030hPa NNW 2.0mph /  3.2km/h 2.0mph /  3.2km/h 42% 0.00in /  0mm
20:34 31.1 °F /  -0.5 °C 10.7 °F /  -11.8 °C 30.42in /  1030hPa NNW 1.0mph /  1.6km/h 2.0mph /  3.2km/h 42% 0.00in /  0mm
20:39 30.9 °F /  -0.6 °C 10.5 °F /  -11.9 °C 30.42in /  1030hPa NNW 1.0mph /  1.6km/h 1.0mph /  1.6km/h 42% 0.00in /  0mm
20:44 30.8 °F /  -0.7 °C 11.0 °F /  -11.7 °C 30.42in /  1030hPa NNW 1.0mph /  1.6km/h 2.0mph /  3.2km/h 43% 0.00in /  0mm
20:49 30.6 °F /  -0.8 °C 10.8 °F /  -11.8 °C 30.42in /  1030hPa NNW 1.0mph /  1.6km/h 1.0mph /  1.6km/h 43% 0.00in /  0mm
20:54 30.6 °F /  -0.8 °C 10.8 °F /  -11.8 °C 30.42in /  1030hPa NW 2.0mph /  3.2km/h 2.0mph /  3.2km/h 43% 0.00in /  0mm
20:59 30.7 °F /  -0.7 °C 10.9 °F /  -11.7 °C 30.42in /  1030hPa NW 1.0mph /  1.6km/h 2.0mph /  3.2km/h 43% 0.00in /  0mm
21:04 30.4 °F /  -0.9 °C 11.1 °F /  -11.6 °C 30.41in /  1029.7hPa NW 1.0mph /  1.6km/h 1.0mph /  1.6km/h 44% 0.00in /  0mm
21:09 30.2 °F /  -1 °C 10.9 °F /  -11.7 °C 30.41in /  1029.7hPa NNW 2.0mph /  3.2km/h 2.0mph /  3.2km/h 44% 0.00in /  0mm
21:14 30.1 °F /  -1.1 °C 10.8 °F /  -11.8 °C 30.41in /  1029.7hPa NNW 1.0mph /  1.6km/h 2.0mph /  3.2km/h 44% 0.00in /  0mm
21:19 29.9 °F /  -1.2 °C 10.6 °F /  -11.9 °C 30.41in /  1029.7hPa North 1.0mph /  1.6km/h 2.0mph /  3.2km/h 44% 0.00in /  0mm
21:24 29.9 °F /  -1.2 °C 11.2 °F /  -11.6 °C 30.41in /  1029.7hPa NNW 2.0mph /  3.2km/h 2.0mph /  3.2km/h 45% 0.00in /  0mm
21:29 29.8 °F /  -1.2 °C 11.1 °F /  -11.6 °C 30.41in /  1029.7hPa NNW 2.0mph /  3.2km/h 3.0mph /  4.8km/h 45% 0.00in /  0mm
21:34 29.7 °F /  -1.3 °C 11.0 °F /  -11.7 °C 30.41in /  1029.7hPa North 2.0mph /  3.2km/h 2.0mph /  3.2km/h 45% 0.00in /  0mm
21:39 29.6 °F /  -1.3 °C 10.9 °F /  -11.7 °C 30.41in /  1029.7hPa NNW 2.0mph /  3.2km/h 3.0mph /  4.8km/h 45% 0.00in /  0mm
21:44 29.6 °F /  -1.3 °C 10.9 °F /  -11.7 °C 30.41in /  1029.7hPa North 2.0mph /  3.2km/h 3.0mph /  4.8km/h 45% 0.00in /  0mm
21:49 29.5 °F /  -1.4 °C 10.8 °F /  -11.8 °C 30.41in /  1029.7hPa North 2.0mph /  3.2km/h 3.0mph /  4.8km/h 45% 0.00in /  0mm
21:54 29.3 °F /  -1.5 °C 11.1 °F /  -11.6 °C 30.41in /  1029.7hPa North 1.0mph /  1.6km/h 2.0mph /  3.2km/h 46% 0.00in /  0mm
21:59 28.9 °F /  -1.7 °C 11.2 °F /  -11.6 °C 30.40in /  1029.3hPa NNW 1.0mph /  1.6km/h 1.0mph /  1.6km/h 47% 0.00in /  0mm
22:04 28.8 °F /  -1.8 °C 11.6 °F /  -11.3 °C 30.41in /  1029.7hPa North 2.0mph /  3.2km/h 3.0mph /  4.8km/h 48% 0.00in /  0mm
22:09 28.9 °F /  -1.7 °C 11.2 °F /  -11.6 °C 30.41in /  1029.7hPa NNW 1.0mph /  1.6km/h 2.0mph /  3.2km/h 47% 0.00in /  0mm
22:14 28.9 °F /  -1.7 °C 11.2 °F /  -11.6 °C 30.41in /  1029.7hPa NNW 1.0mph /  1.6km/h 2.0mph /  3.2km/h 47% 0.00in /  0mm
22:19 28.6 °F /  -1.9 °C 11.4 °F /  -11.4 °C 30.41in /  1029.7hPa Calm   1.0mph /  1.6km/h 48% 0.00in /  0mm
22:24 28.1 °F /  -2.2 °C 11.9 °F /  -11.2 °C 30.41in /  1029.7hPa Calm     50% 0.00in /  0mm
22:29 27.8 °F /  -2.3 °C 10.7 °F /  -11.8 °C 30.41in /  1029.7hPa Calm   1.0mph /  1.6km/h 48% 0.00in /  0mm
22:34 28.0 °F /  -2.2 °C 10.4 °F /  -12 °C 30.41in /  1029.7hPa Calm     47% 0.00in /  0mm
22:39 28.2 °F /  -2.1 °C 10.6 °F /  -11.9 °C 30.41in /  1029.7hPa Calm     47% 0.00in /  0mm
22:44 27.8 °F /  -2.3 °C 10.2 °F /  -12.1 °C 30.40in /  1029.3hPa Calm     47% 0.00in /  0mm
22:49 27.1 °F /  -2.7 °C 10.0 °F /  -12.2 °C 30.40in /  1029.3hPa Calm     48% 0.00in /  0mm
22:54 27.0 °F /  -2.8 °C 10.4 °F /  -12 °C 30.40in /  1029.3hPa Calm     49% 0.00in /  0mm
22:59 27.4 °F /  -2.6 °C 10.3 °F /  -12.1 °C 30.40in /  1029.3hPa North 1.0mph /  1.6km/h 1.0mph /  1.6km/h 48% 0.00in /  0mm
23:04 27.4 °F /  -2.6 °C 10.8 °F /  -11.8 °C 30.39in /  1029hPa NNE 1.0mph /  1.6km/h 2.0mph /  3.2km/h 49% 0.00in /  0mm
23:09 27.3 °F /  -2.6 °C 10.7 °F /  -11.8 °C 30.39in /  1029hPa NNE 1.0mph /  1.6km/h 2.0mph /  3.2km/h 49% 0.00in /  0mm
23:14 27.3 °F /  -2.6 °C 10.7 °F /  -11.8 °C 30.40in /  1029.3hPa Calm   2.0mph /  3.2km/h 49% 0.00in /  0mm
23:19 26.9 °F /  -2.8 °C 10.8 °F /  -11.8 °C 30.39in /  1029hPa Calm     50% 0.00in /  0mm
23:24 26.7 °F /  -2.9 °C 10.6 °F /  -11.9 °C 30.39in /  1029hPa Calm     50% 0.00in /  0mm
23:30 27.0 °F /  -2.8 °C 10.9 °F /  -11.7 °C 30.39in /  1029hPa Calm   1.0mph /  1.6km/h 50% 0.00in /  0mm
23:35 27.4 °F /  -2.6 °C 10.8 °F /  -11.8 °C 30.38in /  1028.7hPa Calm   1.0mph /  1.6km/h 49% 0.00in /  0mm
23:40 27.5 °F /  -2.5 °C 10.9 °F /  -11.7 °C 30.38in /  1028.7hPa Calm   1.0mph /  1.6km/h 49% 0.00in /  0mm
23:45 27.6 °F /  -2.4 °C 10.9 °F /  -11.7 °C 30.39in /  1029hPa Calm   1.0mph /  1.6km/h 49% 0.00in /  0mm
23:50 27.2 °F /  -2.7 °C 11.0 °F /  -11.7 °C 30.39in /  1029hPa Calm     50% 0.00in /  0mm
23:55 26.7 °F /  -2.9 °C 10.6 °F /  -11.9 °C 30.39in /  1029hPa Calm     50% 0.00in /  0mm
Compliments of Weather Underground